sensor_id;sensor_type;location;lat;lon;timestamp;P1;durP1;ratioP1;P2;durP2;ratioP2
74904;SDS011;63465;50.862;6.220;2022-11-18T00:02:09;3.27;;;2.23;;
74904;SDS011;63465;50.862;6.220;2022-11-18T00:04:35;5.93;;;1.70;;
74904;SDS011;63465;50.862;6.220;2022-11-18T00:07:02;3.00;;;2.50;;
74904;SDS011;63465;50.862;6.220;2022-11-18T00:09:29;5.40;;;2.53;;
74904;SDS011;63465;50.862;6.220;2022-11-18T00:11:55;6.17;;;2.90;;
74904;SDS011;63465;50.862;6.220;2022-11-18T00:14:40;2.03;;;1.90;;
74904;SDS011;63465;50.862;6.220;2022-11-18T00:17:06;6.33;;;1.73;;
74904;SDS011;63465;50.862;6.220;2022-11-18T00:19:35;2.67;;;1.77;;
74904;SDS011;63465;50.862;6.220;2022-11-18T00:22:03;3.13;;;1.40;;
74904;SDS011;63465;50.862;6.220;2022-11-18T00:24:31;1.73;;;1.63;;
74904;SDS011;63465;50.862;6.220;2022-11-18T00:26:58;1.77;;;1.67;;
74904;SDS011;63465;50.862;6.220;2022-11-18T00:29:25;2.83;;;1.37;;
74904;SDS011;63465;50.862;6.220;2022-11-18T00:31:52;4.07;;;1.73;;
74904;SDS011;63465;50.862;6.220;2022-11-18T00:34:20;1.83;;;1.67;;
74904;SDS011;63465;50.862;6.220;2022-11-18T00:36:47;8.03;;;1.73;;
74904;SDS011;63465;50.862;6.220;2022-11-18T00:39:15;4.10;;;1.50;;
74904;SDS011;63465;50.862;6.220;2022-11-18T00:41:43;1.93;;;1.77;;
74904;SDS011;63465;50.862;6.220;2022-11-18T00:44:27;9.17;;;1.80;;
74904;SDS011;63465;50.862;6.220;2022-11-18T00:46:54;2.23;;;1.93;;
74904;SDS011;63465;50.862;6.220;2022-11-18T00:49:22;3.73;;;1.73;;
74904;SDS011;63465;50.862;6.220;2022-11-18T00:51:48;4.53;;;1.70;;
74904;SDS011;63465;50.862;6.220;2022-11-18T00:54:15;2.20;;;1.63;;
74904;SDS011;63465;50.862;6.220;2022-11-18T00:56:42;2.63;;;1.70;;
74904;SDS011;63465;50.862;6.220;2022-11-18T00:59:08;2.00;;;1.80;;
74904;SDS011;63465;50.862;6.220;2022-11-18T01:01:35;6.17;;;1.80;;
74904;SDS011;63465;50.862;6.220;2022-11-18T01:04:02;4.93;;;1.73;;
74904;SDS011;63465;50.862;6.220;2022-11-18T01:06:30;5.03;;;1.77;;
74904;SDS011;63465;50.862;6.220;2022-11-18T01:08:57;1.33;;;1.23;;
74904;SDS011;63465;50.862;6.220;2022-11-18T01:11:24;2.90;;;1.43;;
74904;SDS011;63465;50.862;6.220;2022-11-18T01:14:08;2.53;;;1.60;;
74904;SDS011;63465;50.862;6.220;2022-11-18T01:16:35;1.50;;;1.40;;
74904;SDS011;63465;50.862;6.220;2022-11-18T01:19:01;4.00;;;1.20;;
74904;SDS011;63465;50.862;6.220;2022-11-18T01:21:28;3.47;;;1.70;;
74904;SDS011;63465;50.862;6.220;2022-11-18T01:23:56;6.60;;;1.87;;
74904;SDS011;63465;50.862;6.220;2022-11-18T01:26:23;9.17;;;1.60;;
74904;SDS011;63465;50.862;6.220;2022-11-18T01:28:53;4.43;;;1.73;;
74904;SDS011;63465;50.862;6.220;2022-11-18T01:31:20;4.80;;;1.57;;
74904;SDS011;63465;50.862;6.220;2022-11-18T01:33:47;2.50;;;1.23;;
74904;SDS011;63465;50.862;6.220;2022-11-18T01:36:14;4.93;;;1.50;;
74904;SDS011;63465;50.862;6.220;2022-11-18T01:38:42;1.83;;;1.27;;
74904;SDS011;63465;50.862;6.220;2022-11-18T01:41:10;2.63;;;1.60;;
74904;SDS011;63465;50.862;6.220;2022-11-18T01:43:47;3.50;;;1.60;;
74904;SDS011;63465;50.862;6.220;2022-11-18T01:46:15;1.43;;;1.30;;
74904;SDS011;63465;50.862;6.220;2022-11-18T01:48:42;2.73;;;1.40;;
74904;SDS011;63465;50.862;6.220;2022-11-18T01:51:12;5.33;;;1.60;;
74904;SDS011;63465;50.862;6.220;2022-11-18T01:53:42;1.60;;;1.50;;
74904;SDS011;63465;50.862;6.220;2022-11-18T01:56:14;10.00;;;2.37;;
74904;SDS011;63465;50.862;6.220;2022-11-18T01:58:44;8.40;;;2.87;;
74904;SDS011;63465;50.862;6.220;2022-11-18T02:01:15;8.30;;;2.73;;
74904;SDS011;63465;50.862;6.220;2022-11-18T02:03:42;6.00;;;2.20;;
74904;SDS011;63465;50.862;6.220;2022-11-18T02:06:10;5.53;;;2.33;;
74904;SDS011;63465;50.862;6.220;2022-11-18T02:08:37;1.93;;;1.67;;
74904;SDS011;63465;50.862;6.220;2022-11-18T02:11:04;2.80;;;1.70;;
74904;SDS011;63465;50.862;6.220;2022-11-18T02:13:56;3.03;;;1.90;;
74904;SDS011;63465;50.862;6.220;2022-11-18T02:16:25;8.47;;;4.00;;
74904;SDS011;63465;50.862;6.220;2022-11-18T02:19:00;8.63;;;4.63;;
74904;SDS011;63465;50.862;6.220;2022-11-18T02:21:39;13.97;;;7.10;;
74904;SDS011;63465;50.862;6.220;2022-11-18T02:24:22;10.80;;;5.93;;
74904;SDS011;63465;50.862;6.220;2022-11-18T02:29:57;12.20;;;6.37;;
74904;SDS011;63465;50.862;6.220;2022-11-18T02:32:29;11.90;;;6.47;;
74904;SDS011;63465;50.862;6.220;2022-11-18T02:35:00;14.40;;;7.47;;
74904;SDS011;63465;50.862;6.220;2022-11-18T02:37:35;19.90;;;8.00;;
74904;SDS011;63465;50.862;6.220;2022-11-18T02:40:13;12.33;;;5.60;;
74904;SDS011;63465;50.862;6.220;2022-11-18T02:42:44;3.90;;;2.60;;
74904;SDS011;63465;50.862;6.220;2022-11-18T02:45:18;9.73;;;3.10;;
74904;SDS011;63465;50.862;6.220;2022-11-18T02:47:48;4.93;;;2.03;;
74904;SDS011;63465;50.862;6.220;2022-11-18T02:50:17;2.30;;;2.07;;
74904;SDS011;63465;50.862;6.220;2022-11-18T02:52:48;5.93;;;2.27;;
74904;SDS011;63465;50.862;6.220;2022-11-18T02:55:20;2.00;;;1.87;;
74904;SDS011;63465;50.862;6.220;2022-11-18T02:57:49;2.07;;;1.93;;
74904;SDS011;63465;50.862;6.220;2022-11-18T03:00:19;5.07;;;2.30;;
74904;SDS011;63465;50.862;6.220;2022-11-18T03:02:47;10.73;;;2.23;;
74904;SDS011;63465;50.862;6.220;2022-11-18T03:05:15;27.40;;;7.80;;
74904;SDS011;63465;50.862;6.220;2022-11-18T03:07:47;27.73;;;7.57;;
74904;SDS011;63465;50.862;6.220;2022-11-18T03:10:20;19.50;;;5.33;;
74904;SDS011;63465;50.862;6.220;2022-11-18T03:12:52;13.57;;;4.50;;
74904;SDS011;63465;50.862;6.220;2022-11-18T03:15:30;5.20;;;2.40;;
74904;SDS011;63465;50.862;6.220;2022-11-18T03:18:06;6.53;;;3.33;;
74904;SDS011;63465;50.862;6.220;2022-11-18T03:20:42;6.83;;;2.87;;
74904;SDS011;63465;50.862;6.220;2022-11-18T03:23:13;6.93;;;3.40;;
74904;SDS011;63465;50.862;6.220;2022-11-18T03:25:47;2.93;;;2.13;;
74904;SDS011;63465;50.862;6.220;2022-11-18T03:28:17;2.53;;;1.70;;
74904;SDS011;63465;50.862;6.220;2022-11-18T03:30:53;14.77;;;2.00;;
74904;SDS011;63465;50.862;6.220;2022-11-18T03:33:29;6.67;;;1.70;;
74904;SDS011;63465;50.862;6.220;2022-11-18T03:35:59;1.40;;;1.40;;
74904;SDS011;63465;50.862;6.220;2022-11-18T03:38:30;3.10;;;1.37;;
74904;SDS011;63465;50.862;6.220;2022-11-18T03:41:02;4.00;;;1.63;;
74904;SDS011;63465;50.862;6.220;2022-11-18T03:43:34;6.17;;;1.50;;
74904;SDS011;63465;50.862;6.220;2022-11-18T03:46:06;5.63;;;1.60;;
74904;SDS011;63465;50.862;6.220;2022-11-18T03:48:39;4.60;;;1.37;;
74904;SDS011;63465;50.862;6.220;2022-11-18T03:51:10;1.60;;;1.50;;
74904;SDS011;63465;50.862;6.220;2022-11-18T03:53:43;2.63;;;1.70;;
74904;SDS011;63465;50.862;6.220;2022-11-18T03:56:14;2.40;;;1.50;;
74904;SDS011;63465;50.862;6.220;2022-11-18T03:58:46;3.17;;;1.53;;
74904;SDS011;63465;50.862;6.220;2022-11-18T04:01:20;1.93;;;1.60;;
74904;SDS011;63465;50.862;6.220;2022-11-18T04:03:54;2.03;;;1.93;;
74904;SDS011;63465;50.862;6.220;2022-11-18T04:06:23;2.07;;;1.60;;
74904;SDS011;63465;50.862;6.220;2022-11-18T04:08:54;2.53;;;1.67;;
74904;SDS011;63465;50.862;6.220;2022-11-18T04:11:25;2.20;;;1.47;;
74904;SDS011;63465;50.862;6.220;2022-11-18T04:14:14;5.07;;;1.77;;
74904;SDS011;63465;50.862;6.220;2022-11-18T04:16:48;8.50;;;2.20;;
74904;SDS011;63465;50.862;6.220;2022-11-18T04:19:16;1.87;;;1.40;;
74904;SDS011;63465;50.862;6.220;2022-11-18T04:21:43;1.40;;;1.40;;
74904;SDS011;63465;50.862;6.220;2022-11-18T04:24:10;2.87;;;1.60;;
74904;SDS011;63465;50.862;6.220;2022-11-18T04:26:37;1.97;;;1.83;;
74904;SDS011;63465;50.862;6.220;2022-11-18T04:29:04;3.37;;;1.73;;
74904;SDS011;63465;50.862;6.220;2022-11-18T04:31:30;2.00;;;1.90;;
74904;SDS011;63465;50.862;6.220;2022-11-18T04:33:58;3.27;;;2.13;;
74904;SDS011;63465;50.862;6.220;2022-11-18T04:36:25;2.07;;;1.93;;
74904;SDS011;63465;50.862;6.220;2022-11-18T04:38:52;14.37;;;1.80;;
74904;SDS011;63465;50.862;6.220;2022-11-18T04:41:18;3.83;;;1.70;;
74904;SDS011;63465;50.862;6.220;2022-11-18T04:44:05;5.67;;;2.10;;
74904;SDS011;63465;50.862;6.220;2022-11-18T04:46:37;5.03;;;1.90;;
74904;SDS011;63465;50.862;6.220;2022-11-18T04:49:06;6.93;;;1.93;;
74904;SDS011;63465;50.862;6.220;2022-11-18T04:51:33;6.73;;;2.27;;
74904;SDS011;63465;50.862;6.220;2022-11-18T04:54:00;2.80;;;2.00;;
74904;SDS011;63465;50.862;6.220;2022-11-18T04:56:26;5.23;;;2.17;;
74904;SDS011;63465;50.862;6.220;2022-11-18T04:58:53;4.00;;;2.20;;
74904;SDS011;63465;50.862;6.220;2022-11-18T05:01:20;5.87;;;1.67;;
74904;SDS011;63465;50.862;6.220;2022-11-18T05:03:46;1.80;;;1.70;;
74904;SDS011;63465;50.862;6.220;2022-11-18T05:06:14;5.00;;;2.13;;
74904;SDS011;63465;50.862;6.220;2022-11-18T05:08:41;4.20;;;2.03;;
74904;SDS011;63465;50.862;6.220;2022-11-18T05:11:08;2.50;;;1.80;;
74904;SDS011;63465;50.862;6.220;2022-11-18T05:13:52;2.07;;;1.90;;
74904;SDS011;63465;50.862;6.220;2022-11-18T05:16:18;4.87;;;2.17;;
74904;SDS011;63465;50.862;6.220;2022-11-18T05:18:45;3.17;;;1.80;;
74904;SDS011;63465;50.862;6.220;2022-11-18T05:21:12;6.30;;;1.87;;
74904;SDS011;63465;50.862;6.220;2022-11-18T05:23:40;5.07;;;2.20;;
74904;SDS011;63465;50.862;6.220;2022-11-18T05:26:07;1.93;;;1.73;;
74904;SDS011;63465;50.862;6.220;2022-11-18T05:28:35;5.83;;;2.33;;
74904;SDS011;63465;50.862;6.220;2022-11-18T05:31:05;2.37;;;2.00;;
74904;SDS011;63465;50.862;6.220;2022-11-18T05:33:32;2.70;;;2.17;;
74904;SDS011;63465;50.862;6.220;2022-11-18T05:36:01;3.30;;;2.17;;
74904;SDS011;63465;50.862;6.220;2022-11-18T05:38:28;3.30;;;2.10;;
74904;SDS011;63465;50.862;6.220;2022-11-18T05:40:58;5.47;;;2.50;;
74904;SDS011;63465;50.862;6.220;2022-11-18T05:43:24;8.10;;;2.63;;
74904;SDS011;63465;50.862;6.220;2022-11-18T05:45:50;3.30;;;2.53;;
74904;SDS011;63465;50.862;6.220;2022-11-18T05:48:17;5.30;;;2.70;;
74904;SDS011;63465;50.862;6.220;2022-11-18T05:50:45;4.03;;;2.87;;
74904;SDS011;63465;50.862;6.220;2022-11-18T05:53:13;8.00;;;2.70;;
74904;SDS011;63465;50.862;6.220;2022-11-18T05:55:41;4.60;;;2.40;;
74904;SDS011;63465;50.862;6.220;2022-11-18T05:58:14;5.17;;;2.83;;
74904;SDS011;63465;50.862;6.220;2022-11-18T06:00:41;3.70;;;2.47;;
74904;SDS011;63465;50.862;6.220;2022-11-18T06:03:09;5.20;;;3.17;;
74904;SDS011;63465;50.862;6.220;2022-11-18T06:05:40;7.37;;;2.93;;
74904;SDS011;63465;50.862;6.220;2022-11-18T06:08:07;9.60;;;3.00;;
74904;SDS011;63465;50.862;6.220;2022-11-18T06:10:36;5.53;;;2.80;;
74904;SDS011;63465;50.862;6.220;2022-11-18T06:13:04;5.00;;;3.10;;
74904;SDS011;63465;50.862;6.220;2022-11-18T06:15:37;4.03;;;3.00;;
74904;SDS011;63465;50.862;6.220;2022-11-18T06:18:08;4.90;;;2.53;;
74904;SDS011;63465;50.862;6.220;2022-11-18T06:20:37;3.43;;;2.73;;
74904;SDS011;63465;50.862;6.220;2022-11-18T06:23:06;3.03;;;2.60;;
74904;SDS011;63465;50.862;6.220;2022-11-18T06:25:33;8.17;;;2.67;;
74904;SDS011;63465;50.862;6.220;2022-11-18T06:28:03;6.47;;;3.50;;
74904;SDS011;63465;50.862;6.220;2022-11-18T06:30:30;5.80;;;3.47;;
74904;SDS011;63465;50.862;6.220;2022-11-18T06:32:58;5.07;;;3.50;;
74904;SDS011;63465;50.862;6.220;2022-11-18T06:35:25;2.93;;;2.73;;
74904;SDS011;63465;50.862;6.220;2022-11-18T06:37:51;7.53;;;3.60;;
74904;SDS011;63465;50.862;6.220;2022-11-18T06:40:18;4.00;;;3.30;;
74904;SDS011;63465;50.862;6.220;2022-11-18T06:42:45;5.03;;;3.53;;
74904;SDS011;63465;50.862;6.220;2022-11-18T06:45:29;6.27;;;3.70;;
74904;SDS011;63465;50.862;6.220;2022-11-18T06:47:56;7.77;;;3.90;;
74904;SDS011;63465;50.862;6.220;2022-11-18T06:50:25;5.20;;;3.30;;
74904;SDS011;63465;50.862;6.220;2022-11-18T06:52:52;4.10;;;3.70;;
74904;SDS011;63465;50.862;6.220;2022-11-18T06:55:19;12.80;;;4.00;;
74904;SDS011;63465;50.862;6.220;2022-11-18T06:57:46;8.57;;;3.40;;
74904;SDS011;63465;50.862;6.220;2022-11-18T07:00:13;4.50;;;3.73;;
74904;SDS011;63465;50.862;6.220;2022-11-18T07:02:41;7.30;;;3.40;;
74904;SDS011;63465;50.862;6.220;2022-11-18T07:05:08;4.57;;;3.00;;
74904;SDS011;63465;50.862;6.220;2022-11-18T07:07:36;7.80;;;3.50;;
74904;SDS011;63465;50.862;6.220;2022-11-18T07:10:03;4.53;;;3.40;;
74904;SDS011;63465;50.862;6.220;2022-11-18T07:12:30;8.53;;;3.70;;
74904;SDS011;63465;50.862;6.220;2022-11-18T07:14:56;3.13;;;2.93;;
74904;SDS011;63465;50.862;6.220;2022-11-18T07:17:23;6.97;;;3.70;;
74904;SDS011;63465;50.862;6.220;2022-11-18T07:19:50;7.83;;;3.27;;
74904;SDS011;63465;50.862;6.220;2022-11-18T07:22:17;5.33;;;3.10;;
74904;SDS011;63465;50.862;6.220;2022-11-18T07:24:45;3.03;;;2.73;;
74904;SDS011;63465;50.862;6.220;2022-11-18T07:27:11;3.70;;;3.30;;
74904;SDS011;63465;50.862;6.220;2022-11-18T07:29:38;5.70;;;3.17;;
74904;SDS011;63465;50.862;6.220;2022-11-18T07:32:05;3.43;;;3.10;;
74904;SDS011;63465;50.862;6.220;2022-11-18T07:34:31;5.53;;;3.27;;
74904;SDS011;63465;50.862;6.220;2022-11-18T07:36:58;4.90;;;2.80;;
74904;SDS011;63465;50.862;6.220;2022-11-18T07:39:25;6.30;;;2.80;;
74904;SDS011;63465;50.862;6.220;2022-11-18T07:41:53;6.67;;;3.47;;
74904;SDS011;63465;50.862;6.220;2022-11-18T07:44:19;3.80;;;3.40;;
74904;SDS011;63465;50.862;6.220;2022-11-18T07:46:46;5.00;;;2.40;;
74904;SDS011;63465;50.862;6.220;2022-11-18T07:49:13;8.47;;;2.90;;
74904;SDS011;63465;50.862;6.220;2022-11-18T07:51:39;4.07;;;3.10;;
74904;SDS011;63465;50.862;6.220;2022-11-18T07:54:06;5.50;;;3.27;;
74904;SDS011;63465;50.862;6.220;2022-11-18T07:56:34;7.17;;;3.33;;
74904;SDS011;63465;50.862;6.220;2022-11-18T07:59:02;7.50;;;3.00;;
74904;SDS011;63465;50.862;6.220;2022-11-18T08:01:29;3.37;;;2.80;;
74904;SDS011;63465;50.862;6.220;2022-11-18T08:03:56;3.00;;;2.80;;
74904;SDS011;63465;50.862;6.220;2022-11-18T08:06:30;8.40;;;2.93;;
74904;SDS011;63465;50.862;6.220;2022-11-18T08:08:58;14.73;;;2.73;;
74904;SDS011;63465;50.862;6.220;2022-11-18T08:11:25;5.87;;;2.90;;
74904;SDS011;63465;50.862;6.220;2022-11-18T08:13:52;5.93;;;3.07;;
74904;SDS011;63465;50.862;6.220;2022-11-18T08:16:21;8.40;;;2.50;;
74904;SDS011;63465;50.862;6.220;2022-11-18T08:18:50;5.80;;;2.40;;
74904;SDS011;63465;50.862;6.220;2022-11-18T08:21:17;3.33;;;2.30;;
74904;SDS011;63465;50.862;6.220;2022-11-18T08:23:47;2.70;;;2.50;;
74904;SDS011;63465;50.862;6.220;2022-11-18T08:26:14;3.87;;;3.13;;
74904;SDS011;63465;50.862;6.220;2022-11-18T08:28:42;5.83;;;2.43;;
74904;SDS011;63465;50.862;6.220;2022-11-18T08:31:09;9.33;;;2.90;;
74904;SDS011;63465;50.862;6.220;2022-11-18T08:33:38;2.83;;;2.57;;
74904;SDS011;63465;50.862;6.220;2022-11-18T08:36:05;4.63;;;2.40;;
74904;SDS011;63465;50.862;6.220;2022-11-18T08:38:33;3.03;;;2.00;;
74904;SDS011;63465;50.862;6.220;2022-11-18T08:41:00;6.40;;;2.60;;
74904;SDS011;63465;50.862;6.220;2022-11-18T08:43:27;4.80;;;2.40;;
74904;SDS011;63465;50.862;6.220;2022-11-18T08:45:54;5.07;;;2.63;;
74904;SDS011;63465;50.862;6.220;2022-11-18T08:50:54;7.93;;;2.20;;
74904;SDS011;63465;50.862;6.220;2022-11-18T08:53:22;4.20;;;2.20;;
74904;SDS011;63465;50.862;6.220;2022-11-18T08:55:53;4.40;;;2.27;;
74904;SDS011;63465;50.862;6.220;2022-11-18T08:58:20;4.13;;;2.10;;
74904;SDS011;63465;50.862;6.220;2022-11-18T09:00:46;3.20;;;1.80;;
74904;SDS011;63465;50.862;6.220;2022-11-18T09:03:13;6.27;;;2.50;;
74904;SDS011;63465;50.862;6.220;2022-11-18T09:05:40;3.63;;;1.90;;
74904;SDS011;63465;50.862;6.220;2022-11-18T09:08:08;6.00;;;2.47;;
74904;SDS011;63465;50.862;6.220;2022-11-18T09:10:35;4.37;;;2.10;;
74904;SDS011;63465;50.862;6.220;2022-11-18T09:13:02;7.40;;;2.20;;
74904;SDS011;63465;50.862;6.220;2022-11-18T09:15:28;4.33;;;1.73;;
74904;SDS011;63465;50.862;6.220;2022-11-18T09:17:55;5.33;;;1.93;;
74904;SDS011;63465;50.862;6.220;2022-11-18T09:20:23;4.30;;;2.13;;
74904;SDS011;63465;50.862;6.220;2022-11-18T09:22:49;2.70;;;2.10;;
74904;SDS011;63465;50.862;6.220;2022-11-18T09:25:18;1.87;;;1.63;;
74904;SDS011;63465;50.862;6.220;2022-11-18T09:27:44;6.50;;;2.23;;
74904;SDS011;63465;50.862;6.220;2022-11-18T09:30:12;1.90;;;1.60;;
74904;SDS011;63465;50.862;6.220;2022-11-18T09:32:38;2.00;;;1.90;;
74904;SDS011;63465;50.862;6.220;2022-11-18T09:35:05;3.07;;;1.77;;
74904;SDS011;63465;50.862;6.220;2022-11-18T09:37:32;3.10;;;1.77;;
74904;SDS011;63465;50.862;6.220;2022-11-18T09:39:59;1.87;;;1.50;;
74904;SDS011;63465;50.862;6.220;2022-11-18T09:42:30;5.00;;;2.17;;
74904;SDS011;63465;50.862;6.220;2022-11-18T09:45:16;7.93;;;1.70;;
74904;SDS011;63465;50.862;6.220;2022-11-18T09:47:48;6.00;;;1.80;;
74904;SDS011;63465;50.862;6.220;2022-11-18T09:50:16;2.83;;;1.70;;
74904;SDS011;63465;50.862;6.220;2022-11-18T09:52:47;5.30;;;1.60;;
74904;SDS011;63465;50.862;6.220;2022-11-18T09:55:21;3.90;;;1.60;;
74904;SDS011;63465;50.862;6.220;2022-11-18T09:57:50;3.03;;;1.63;;
74904;SDS011;63465;50.862;6.220;2022-11-18T10:00:20;6.67;;;1.60;;
74904;SDS011;63465;50.862;6.220;2022-11-18T10:02:51;7.53;;;1.77;;
74904;SDS011;63465;50.862;6.220;2022-11-18T10:05:25;5.27;;;2.00;;
74904;SDS011;63465;50.862;6.220;2022-11-18T10:07:56;2.47;;;1.47;;
74904;SDS011;63465;50.862;6.220;2022-11-18T10:10:32;3.17;;;1.80;;
74904;SDS011;63465;50.862;6.220;2022-11-18T10:13:11;7.00;;;1.67;;
74904;SDS011;63465;50.862;6.220;2022-11-18T10:15:49;9.10;;;1.73;;
74904;SDS011;63465;50.862;6.220;2022-11-18T10:18:21;3.07;;;1.73;;
74904;SDS011;63465;50.862;6.220;2022-11-18T10:20:58;7.70;;;1.60;;
74904;SDS011;63465;50.862;6.220;2022-11-18T10:23:31;11.00;;;2.10;;
74904;SDS011;63465;50.862;6.220;2022-11-18T10:26:01;8.30;;;2.00;;
74904;SDS011;63465;50.862;6.220;2022-11-18T10:28:29;3.20;;;1.70;;
74904;SDS011;63465;50.862;6.220;2022-11-18T10:31:02;10.97;;;1.87;;
74904;SDS011;63465;50.862;6.220;2022-11-18T10:33:30;8.67;;;1.37;;
74904;SDS011;63465;50.862;6.220;2022-11-18T10:38:56;4.30;;;1.50;;
74904;SDS011;63465;50.862;6.220;2022-11-18T10:41:31;6.47;;;1.80;;
74904;SDS011;63465;50.862;6.220;2022-11-18T10:44:08;11.40;;;1.30;;
74904;SDS011;63465;50.862;6.220;2022-11-18T10:46:53;3.70;;;1.53;;
74904;SDS011;63465;50.862;6.220;2022-11-18T10:49:19;3.40;;;1.70;;
74904;SDS011;63465;50.862;6.220;2022-11-18T10:51:47;3.70;;;1.60;;
74904;SDS011;63465;50.862;6.220;2022-11-18T10:54:29;9.53;;;1.67;;
74904;SDS011;63465;50.862;6.220;2022-11-18T10:56:56;5.33;;;2.70;;
74904;SDS011;63465;50.862;6.220;2022-11-18T10:59:29;13.03;;;2.17;;
74904;SDS011;63465;50.862;6.220;2022-11-18T11:01:59;19.53;;;2.10;;
74904;SDS011;63465;50.862;6.220;2022-11-18T11:04:28;4.97;;;1.80;;
74904;SDS011;63465;50.862;6.220;2022-11-18T11:06:56;4.73;;;1.40;;
74904;SDS011;63465;50.862;6.220;2022-11-18T11:09:27;6.83;;;2.03;;
74904;SDS011;63465;50.862;6.220;2022-11-18T11:11:56;5.60;;;1.90;;
74904;SDS011;63465;50.862;6.220;2022-11-18T11:14:25;2.20;;;1.77;;
74904;SDS011;63465;50.862;6.220;2022-11-18T11:16:58;11.50;;;2.03;;
74904;SDS011;63465;50.862;6.220;2022-11-18T11:19:33;6.20;;;2.30;;
74904;SDS011;63465;50.862;6.220;2022-11-18T11:22:07;5.03;;;2.20;;
74904;SDS011;63465;50.862;6.220;2022-11-18T11:24:35;11.47;;;2.03;;
74904;SDS011;63465;50.862;6.220;2022-11-18T11:27:04;12.03;;;2.20;;
74904;SDS011;63465;50.862;6.220;2022-11-18T11:32:38;8.87;;;1.80;;
74904;SDS011;63465;50.862;6.220;2022-11-18T11:35:17;8.00;;;2.10;;
74904;SDS011;63465;50.862;6.220;2022-11-18T11:37:49;5.37;;;1.87;;
74904;SDS011;63465;50.862;6.220;2022-11-18T11:40:20;6.27;;;2.20;;
74904;SDS011;63465;50.862;6.220;2022-11-18T11:42:57;6.93;;;1.77;;
74904;SDS011;63465;50.862;6.220;2022-11-18T11:45:38;4.77;;;2.03;;
74904;SDS011;63465;50.862;6.220;2022-11-18T11:48:21;4.20;;;1.60;;
74904;SDS011;63465;50.862;6.220;2022-11-18T11:50:59;6.47;;;2.40;;
74904;SDS011;63465;50.862;6.220;2022-11-18T11:53:45;6.50;;;2.00;;
74904;SDS011;63465;50.862;6.220;2022-11-18T11:56:23;7.30;;;2.20;;
74904;SDS011;63465;50.862;6.220;2022-11-18T11:59:03;3.63;;;2.00;;
74904;SDS011;63465;50.862;6.220;2022-11-18T12:01:41;4.47;;;2.10;;
74904;SDS011;63465;50.862;6.220;2022-11-18T12:04:23;2.10;;;1.67;;
74904;SDS011;63465;50.862;6.220;2022-11-18T12:07:00;4.70;;;2.10;;
74904;SDS011;63465;50.862;6.220;2022-11-18T12:09:30;1.60;;;1.50;;
74904;SDS011;63465;50.862;6.220;2022-11-18T12:12:10;3.50;;;1.60;;
74904;SDS011;63465;50.862;6.220;2022-11-18T12:15:01;3.53;;;1.80;;
74904;SDS011;63465;50.862;6.220;2022-11-18T12:17:39;7.70;;;1.90;;
74904;SDS011;63465;50.862;6.220;2022-11-18T12:23:10;6.63;;;2.37;;
74904;SDS011;63465;50.862;6.220;2022-11-18T12:25:57;5.33;;;2.10;;
74904;SDS011;63465;50.862;6.220;2022-11-18T12:28:30;6.67;;;2.37;;
74904;SDS011;63465;50.862;6.220;2022-11-18T12:34:02;8.27;;;2.40;;
74904;SDS011;63465;50.862;6.220;2022-11-18T12:36:41;11.30;;;2.10;;
74904;SDS011;63465;50.862;6.220;2022-11-18T12:45:46;6.83;;;2.90;;
74904;SDS011;63465;50.862;6.220;2022-11-18T12:48:32;4.50;;;1.67;;
74904;SDS011;63465;50.862;6.220;2022-11-18T12:51:06;4.40;;;2.07;;
74904;SDS011;63465;50.862;6.220;2022-11-18T12:53:51;2.80;;;2.10;;
74904;SDS011;63465;50.862;6.220;2022-11-18T12:56:20;7.53;;;1.80;;
74904;SDS011;63465;50.862;6.220;2022-11-18T12:58:48;9.23;;;1.93;;
74904;SDS011;63465;50.862;6.220;2022-11-18T13:01:17;8.47;;;2.10;;
74904;SDS011;63465;50.862;6.220;2022-11-18T13:03:45;8.13;;;2.10;;
74904;SDS011;63465;50.862;6.220;2022-11-18T13:06:19;4.87;;;1.80;;
74904;SDS011;63465;50.862;6.220;2022-11-18T13:08:50;3.23;;;1.63;;
74904;SDS011;63465;50.862;6.220;2022-11-18T13:11:20;7.50;;;1.97;;
74904;SDS011;63465;50.862;6.220;2022-11-18T13:14:04;10.40;;;1.83;;
74904;SDS011;63465;50.862;6.220;2022-11-18T13:16:56;2.90;;;1.80;;
74904;SDS011;63465;50.862;6.220;2022-11-18T13:19:40;3.00;;;1.80;;
74904;SDS011;63465;50.862;6.220;2022-11-18T13:22:14;4.77;;;1.80;;
74904;SDS011;63465;50.862;6.220;2022-11-18T13:25:00;3.60;;;2.07;;
74904;SDS011;63465;50.862;6.220;2022-11-18T13:27:30;2.93;;;1.60;;
74904;SDS011;63465;50.862;6.220;2022-11-18T13:30:07;6.20;;;1.67;;
74904;SDS011;63465;50.862;6.220;2022-11-18T13:32:36;5.00;;;2.20;;
74904;SDS011;63465;50.862;6.220;2022-11-18T13:35:10;6.20;;;2.10;;
74904;SDS011;63465;50.862;6.220;2022-11-18T13:37:48;5.50;;;2.50;;
74904;SDS011;63465;50.862;6.220;2022-11-18T13:40:21;8.63;;;2.33;;
74904;SDS011;63465;50.862;6.220;2022-11-18T13:42:50;5.70;;;2.80;;
74904;SDS011;63465;50.862;6.220;2022-11-18T13:45:18;5.70;;;1.67;;
74904;SDS011;63465;50.862;6.220;2022-11-18T13:47:46;2.80;;;1.70;;
74904;SDS011;63465;50.862;6.220;2022-11-18T13:50:17;4.10;;;2.63;;
74904;SDS011;63465;50.862;6.220;2022-11-18T13:52:52;4.33;;;1.77;;
74904;SDS011;63465;50.862;6.220;2022-11-18T13:55:27;10.07;;;2.10;;
74904;SDS011;63465;50.862;6.220;2022-11-18T13:57:59;2.90;;;1.60;;
74904;SDS011;63465;50.862;6.220;2022-11-18T14:00:29;7.97;;;2.20;;
74904;SDS011;63465;50.862;6.220;2022-11-18T14:02:58;2.30;;;1.60;;
74904;SDS011;63465;50.862;6.220;2022-11-18T14:05:27;2.63;;;1.80;;
74904;SDS011;63465;50.862;6.220;2022-11-18T14:07:57;3.00;;;1.87;;
74904;SDS011;63465;50.862;6.220;2022-11-18T14:10:30;6.23;;;1.80;;
74904;SDS011;63465;50.862;6.220;2022-11-18T14:12:59;3.80;;;1.73;;
74904;SDS011;63465;50.862;6.220;2022-11-18T14:15:32;1.73;;;1.60;;
74904;SDS011;63465;50.862;6.220;2022-11-18T14:18:01;4.93;;;1.67;;
74904;SDS011;63465;50.862;6.220;2022-11-18T14:20:29;7.30;;;1.80;;
74904;SDS011;63465;50.862;6.220;2022-11-18T14:22:58;7.80;;;1.73;;
74904;SDS011;63465;50.862;6.220;2022-11-18T14:25:27;3.57;;;1.83;;
74904;SDS011;63465;50.862;6.220;2022-11-18T14:27:56;3.60;;;1.53;;
74904;SDS011;63465;50.862;6.220;2022-11-18T14:30:34;3.17;;;1.20;;
74904;SDS011;63465;50.862;6.220;2022-11-18T14:33:09;3.10;;;1.80;;
74904;SDS011;63465;50.862;6.220;2022-11-18T14:35:41;2.50;;;1.37;;
74904;SDS011;63465;50.862;6.220;2022-11-18T14:38:12;3.23;;;1.50;;
74904;SDS011;63465;50.862;6.220;2022-11-18T14:40:41;4.27;;;1.47;;
74904;SDS011;63465;50.862;6.220;2022-11-18T14:43:08;7.60;;;2.13;;
74904;SDS011;63465;50.862;6.220;2022-11-18T14:45:37;6.90;;;1.60;;
74904;SDS011;63465;50.862;6.220;2022-11-18T14:48:05;10.70;;;1.77;;
74904;SDS011;63465;50.862;6.220;2022-11-18T14:50:32;1.57;;;1.47;;
74904;SDS011;63465;50.862;6.220;2022-11-18T14:52:59;5.07;;;1.83;;
74904;SDS011;63465;50.862;6.220;2022-11-18T14:55:27;1.50;;;1.40;;
74904;SDS011;63465;50.862;6.220;2022-11-18T14:57:54;5.77;;;2.20;;
74904;SDS011;63465;50.862;6.220;2022-11-18T15:00:20;2.00;;;1.80;;
74904;SDS011;63465;50.862;6.220;2022-11-18T15:02:47;3.37;;;1.87;;
74904;SDS011;63465;50.862;6.220;2022-11-18T15:05:13;2.90;;;2.10;;
74904;SDS011;63465;50.862;6.220;2022-11-18T15:07:40;4.57;;;1.90;;
74904;SDS011;63465;50.862;6.220;2022-11-18T15:10:08;3.80;;;1.63;;
74904;SDS011;63465;50.862;6.220;2022-11-18T15:12:40;2.10;;;1.83;;
74904;SDS011;63465;50.862;6.220;2022-11-18T15:15:06;2.80;;;1.53;;
74904;SDS011;63465;50.862;6.220;2022-11-18T15:17:34;2.53;;;1.60;;
74904;SDS011;63465;50.862;6.220;2022-11-18T15:20:00;4.73;;;1.60;;
74904;SDS011;63465;50.862;6.220;2022-11-18T15:22:28;3.13;;;1.73;;
74904;SDS011;63465;50.862;6.220;2022-11-18T15:24:55;3.03;;;1.63;;
74904;SDS011;63465;50.862;6.220;2022-11-18T15:27:21;7.23;;;2.20;;
74904;SDS011;63465;50.862;6.220;2022-11-18T15:29:49;7.63;;;2.30;;